Texline, Texas
Current Conditions -  °F | °C
As of 4:55 PM on Saturday 22 Nov 2014 (Local Time) from KCAO Reporting Station
Clear Clear  
Wind Chill: 18°   Ceiling: Unl
Heat Index: 18°   Visibility: 10mi
Dew Point: -12°   Wind: 15mph
Humidity: 13%   Direction: 250°WSW
Pressure: 29.64"   Gusts: 25mph
Location:  36.38°N, 103.02°W
Report Text: KCAO 222255Z AUTO 25013G22KT 10SM CLR 18/M12 A2964 RMK AO2 PK WND 23028/2207 SLP007 T01781117
Loading
Personal Weather Stations






























Interactive Weather Map New forecast layout! Learn more

10-Day Weather Forecast

Advertisements
Track Severe Weather on mobile